sensor_id;sensor_type;location;lat;lon;timestamp;P1;durP1;ratioP1;P2;durP2;ratioP2
79076;SDS011;68477;42.698;23.342;2023-08-12T00:00:49;5.22;;;4.32;;
79076;SDS011;68477;42.698;23.342;2023-08-12T00:03:15;8.93;;;3.63;;
79076;SDS011;68477;42.698;23.342;2023-08-12T00:05:40;4.45;;;3.10;;
79076;SDS011;68477;42.698;23.342;2023-08-12T00:08:08;5.72;;;3.50;;
79076;SDS011;68477;42.698;23.342;2023-08-12T00:10:34;4.72;;;3.30;;
79076;SDS011;68477;42.698;23.342;2023-08-12T00:12:59;7.10;;;3.33;;
79076;SDS011;68477;42.698;23.342;2023-08-12T00:15:25;3.60;;;2.97;;
79076;SDS011;68477;42.698;23.342;2023-08-12T00:17:52;5.32;;;3.22;;
79076;SDS011;68477;42.698;23.342;2023-08-12T00:20:17;5.55;;;3.42;;
79076;SDS011;68477;42.698;23.342;2023-08-12T00:22:43;4.18;;;3.17;;
79076;SDS011;68477;42.698;23.342;2023-08-12T00:25:09;5.20;;;3.58;;
79076;SDS011;68477;42.698;23.342;2023-08-12T00:27:35;4.05;;;3.03;;
79076;SDS011;68477;42.698;23.342;2023-08-12T00:30:02;4.65;;;3.30;;
79076;SDS011;68477;42.698;23.342;2023-08-12T00:32:29;7.35;;;3.20;;
79076;SDS011;68477;42.698;23.342;2023-08-12T00:34:54;6.57;;;3.50;;
79076;SDS011;68477;42.698;23.342;2023-08-12T00:37:20;4.05;;;3.47;;
79076;SDS011;68477;42.698;23.342;2023-08-12T00:39:46;6.80;;;3.47;;
79076;SDS011;68477;42.698;23.342;2023-08-12T00:42:11;4.82;;;3.42;;
79076;SDS011;68477;42.698;23.342;2023-08-12T00:44:37;5.15;;;3.78;;
79076;SDS011;68477;42.698;23.342;2023-08-12T00:47:02;4.68;;;3.42;;
79076;SDS011;68477;42.698;23.342;2023-08-12T00:49:28;6.35;;;2.90;;
79076;SDS011;68477;42.698;23.342;2023-08-12T00:51:54;4.55;;;3.20;;
79076;SDS011;68477;42.698;23.342;2023-08-12T00:54:20;4.47;;;3.28;;
79076;SDS011;68477;42.698;23.342;2023-08-12T00:56:48;6.45;;;3.38;;
79076;SDS011;68477;42.698;23.342;2023-08-12T00:59:14;5.32;;;3.25;;
79076;SDS011;68477;42.698;23.342;2023-08-12T01:01:42;6.55;;;3.60;;
79076;SDS011;68477;42.698;23.342;2023-08-12T01:04:08;5.13;;;3.70;;
79076;SDS011;68477;42.698;23.342;2023-08-12T01:06:35;4.20;;;3.25;;
79076;SDS011;68477;42.698;23.342;2023-08-12T01:09:02;5.20;;;3.67;;
79076;SDS011;68477;42.698;23.342;2023-08-12T01:11:48;6.18;;;3.40;;
79076;SDS011;68477;42.698;23.342;2023-08-12T01:17:23;5.47;;;4.20;;
79076;SDS011;68477;42.698;23.342;2023-08-12T01:19:52;5.18;;;3.60;;
79076;SDS011;68477;42.698;23.342;2023-08-12T01:22:19;6.25;;;3.60;;
79076;SDS011;68477;42.698;23.342;2023-08-12T01:24:48;4.88;;;3.60;;
79076;SDS011;68477;42.698;23.342;2023-08-12T01:27:16;7.20;;;3.53;;
79076;SDS011;68477;42.698;23.342;2023-08-12T01:29:42;5.13;;;3.30;;
79076;SDS011;68477;42.698;23.342;2023-08-12T01:35:23;4.63;;;3.53;;
79076;SDS011;68477;42.698;23.342;2023-08-12T01:37:53;5.20;;;3.08;;
79076;SDS011;68477;42.698;23.342;2023-08-12T01:40:19;5.65;;;3.70;;
79076;SDS011;68477;42.698;23.342;2023-08-12T01:42:45;5.05;;;3.75;;
79076;SDS011;68477;42.698;23.342;2023-08-12T01:45:11;6.28;;;3.55;;
79076;SDS011;68477;42.698;23.342;2023-08-12T01:47:36;5.63;;;3.72;;
79076;SDS011;68477;42.698;23.342;2023-08-12T01:50:02;5.18;;;3.38;;
79076;SDS011;68477;42.698;23.342;2023-08-12T01:52:28;4.80;;;3.35;;
79076;SDS011;68477;42.698;23.342;2023-08-12T01:54:54;5.97;;;3.40;;
79076;SDS011;68477;42.698;23.342;2023-08-12T01:57:19;6.72;;;3.70;;
79076;SDS011;68477;42.698;23.342;2023-08-12T01:59:44;5.70;;;3.33;;
79076;SDS011;68477;42.698;23.342;2023-08-12T02:02:10;4.38;;;3.40;;
79076;SDS011;68477;42.698;23.342;2023-08-12T02:04:36;7.03;;;3.45;;
79076;SDS011;68477;42.698;23.342;2023-08-12T02:07:02;6.28;;;3.92;;
79076;SDS011;68477;42.698;23.342;2023-08-12T02:09:28;6.57;;;3.97;;
79076;SDS011;68477;42.698;23.342;2023-08-12T02:11:54;4.47;;;3.78;;
79076;SDS011;68477;42.698;23.342;2023-08-12T02:14:19;4.93;;;3.85;;
79076;SDS011;68477;42.698;23.342;2023-08-12T02:16:44;5.30;;;3.60;;
79076;SDS011;68477;42.698;23.342;2023-08-12T02:19:10;5.97;;;3.85;;
79076;SDS011;68477;42.698;23.342;2023-08-12T02:21:35;4.97;;;3.80;;
79076;SDS011;68477;42.698;23.342;2023-08-12T02:24:01;5.40;;;3.70;;
79076;SDS011;68477;42.698;23.342;2023-08-12T02:26:26;5.30;;;3.58;;
79076;SDS011;68477;42.698;23.342;2023-08-12T02:28:52;4.95;;;3.45;;
79076;SDS011;68477;42.698;23.342;2023-08-12T02:31:17;6.10;;;3.58;;
79076;SDS011;68477;42.698;23.342;2023-08-12T02:33:43;5.70;;;3.55;;
79076;SDS011;68477;42.698;23.342;2023-08-12T02:36:08;6.80;;;3.60;;
79076;SDS011;68477;42.698;23.342;2023-08-12T02:38:34;6.28;;;3.90;;
79076;SDS011;68477;42.698;23.342;2023-08-12T02:41:00;7.53;;;4.05;;
79076;SDS011;68477;42.698;23.342;2023-08-12T02:43:25;7.15;;;4.90;;
79076;SDS011;68477;42.698;23.342;2023-08-12T02:45:51;6.93;;;4.05;;
79076;SDS011;68477;42.698;23.342;2023-08-12T02:48:17;5.57;;;3.90;;
79076;SDS011;68477;42.698;23.342;2023-08-12T02:50:43;6.53;;;3.90;;
79076;SDS011;68477;42.698;23.342;2023-08-12T02:53:09;6.10;;;3.33;;
79076;SDS011;68477;42.698;23.342;2023-08-12T02:55:34;6.03;;;3.85;;
79076;SDS011;68477;42.698;23.342;2023-08-12T02:58:00;6.07;;;3.58;;
79076;SDS011;68477;42.698;23.342;2023-08-12T03:00:26;5.95;;;3.60;;
79076;SDS011;68477;42.698;23.342;2023-08-12T03:02:52;5.93;;;4.60;;
79076;SDS011;68477;42.698;23.342;2023-08-12T03:05:18;6.03;;;4.32;;
79076;SDS011;68477;42.698;23.342;2023-08-12T03:07:43;5.53;;;3.67;;
79076;SDS011;68477;42.698;23.342;2023-08-12T03:10:09;5.53;;;3.95;;
79076;SDS011;68477;42.698;23.342;2023-08-12T03:12:34;5.03;;;3.83;;
79076;SDS011;68477;42.698;23.342;2023-08-12T03:15:00;7.65;;;4.20;;
79076;SDS011;68477;42.698;23.342;2023-08-12T03:17:26;8.65;;;4.13;;
79076;SDS011;68477;42.698;23.342;2023-08-12T03:19:51;6.43;;;4.53;;
79076;SDS011;68477;42.698;23.342;2023-08-12T03:22:19;6.03;;;4.10;;
79076;SDS011;68477;42.698;23.342;2023-08-12T03:24:44;6.13;;;4.22;;
79076;SDS011;68477;42.698;23.342;2023-08-12T03:27:10;5.57;;;3.75;;
79076;SDS011;68477;42.698;23.342;2023-08-12T03:29:35;5.10;;;3.67;;
79076;SDS011;68477;42.698;23.342;2023-08-12T03:32:01;7.05;;;4.18;;
79076;SDS011;68477;42.698;23.342;2023-08-12T03:34:28;6.50;;;4.53;;
79076;SDS011;68477;42.698;23.342;2023-08-12T03:36:54;5.40;;;3.53;;
79076;SDS011;68477;42.698;23.342;2023-08-12T03:39:20;6.47;;;4.88;;
79076;SDS011;68477;42.698;23.342;2023-08-12T03:41:45;7.35;;;4.60;;
79076;SDS011;68477;42.698;23.342;2023-08-12T03:44:11;7.20;;;4.85;;
79076;SDS011;68477;42.698;23.342;2023-08-12T03:46:36;6.22;;;4.53;;
79076;SDS011;68477;42.698;23.342;2023-08-12T03:49:02;6.53;;;5.07;;
79076;SDS011;68477;42.698;23.342;2023-08-12T03:51:27;5.63;;;4.38;;
79076;SDS011;68477;42.698;23.342;2023-08-12T03:53:52;5.15;;;4.10;;
79076;SDS011;68477;42.698;23.342;2023-08-12T03:56:18;7.57;;;3.80;;
79076;SDS011;68477;42.698;23.342;2023-08-12T03:58:43;6.05;;;4.07;;
79076;SDS011;68477;42.698;23.342;2023-08-12T04:01:09;7.47;;;4.05;;
79076;SDS011;68477;42.698;23.342;2023-08-12T04:03:34;6.05;;;4.05;;
79076;SDS011;68477;42.698;23.342;2023-08-12T04:06:00;9.52;;;4.70;;
79076;SDS011;68477;42.698;23.342;2023-08-12T04:08:25;9.82;;;4.20;;
79076;SDS011;68477;42.698;23.342;2023-08-12T04:10:51;5.97;;;4.03;;
79076;SDS011;68477;42.698;23.342;2023-08-12T04:13:16;6.55;;;4.22;;
79076;SDS011;68477;42.698;23.342;2023-08-12T04:15:42;7.28;;;4.57;;
79076;SDS011;68477;42.698;23.342;2023-08-12T04:18:14;8.38;;;4.13;;
79076;SDS011;68477;42.698;23.342;2023-08-12T04:20:39;7.15;;;3.90;;
79076;SDS011;68477;42.698;23.342;2023-08-12T04:23:05;13.32;;;5.35;;
79076;SDS011;68477;42.698;23.342;2023-08-12T04:25:31;4.70;;;3.92;;
79076;SDS011;68477;42.698;23.342;2023-08-12T04:27:56;5.82;;;3.95;;
79076;SDS011;68477;42.698;23.342;2023-08-12T04:30:21;10.68;;;4.25;;
79076;SDS011;68477;42.698;23.342;2023-08-12T04:32:47;5.72;;;3.75;;
79076;SDS011;68477;42.698;23.342;2023-08-12T04:35:12;6.32;;;4.05;;
79076;SDS011;68477;42.698;23.342;2023-08-12T04:37:38;5.22;;;3.50;;
79076;SDS011;68477;42.698;23.342;2023-08-12T04:40:04;5.55;;;3.75;;
79076;SDS011;68477;42.698;23.342;2023-08-12T04:42:30;8.68;;;4.20;;
79076;SDS011;68477;42.698;23.342;2023-08-12T04:44:55;5.45;;;3.67;;
79076;SDS011;68477;42.698;23.342;2023-08-12T04:47:21;6.75;;;4.03;;
79076;SDS011;68477;42.698;23.342;2023-08-12T04:49:46;7.47;;;3.53;;
79076;SDS011;68477;42.698;23.342;2023-08-12T04:52:11;6.18;;;3.88;;
79076;SDS011;68477;42.698;23.342;2023-08-12T04:54:37;5.47;;;3.67;;
79076;SDS011;68477;42.698;23.342;2023-08-12T04:57:02;5.70;;;3.33;;
79076;SDS011;68477;42.698;23.342;2023-08-12T04:59:28;5.93;;;4.65;;
79076;SDS011;68477;42.698;23.342;2023-08-12T05:01:53;5.68;;;3.97;;
79076;SDS011;68477;42.698;23.342;2023-08-12T05:04:19;5.18;;;3.78;;
79076;SDS011;68477;42.698;23.342;2023-08-12T05:06:44;6.30;;;3.70;;
79076;SDS011;68477;42.698;23.342;2023-08-12T05:09:10;6.70;;;3.28;;
79076;SDS011;68477;42.698;23.342;2023-08-12T05:11:36;5.88;;;3.92;;
79076;SDS011;68477;42.698;23.342;2023-08-12T05:14:01;7.85;;;4.15;;
79076;SDS011;68477;42.698;23.342;2023-08-12T05:16:27;6.75;;;4.10;;
79076;SDS011;68477;42.698;23.342;2023-08-12T05:18:54;5.60;;;3.75;;
79076;SDS011;68477;42.698;23.342;2023-08-12T05:21:19;4.47;;;3.55;;
79076;SDS011;68477;42.698;23.342;2023-08-12T05:23:45;5.90;;;3.60;;
79076;SDS011;68477;42.698;23.342;2023-08-12T05:26:10;6.07;;;3.95;;
79076;SDS011;68477;42.698;23.342;2023-08-12T05:28:35;4.95;;;3.42;;
79076;SDS011;68477;42.698;23.342;2023-08-12T05:31:01;6.95;;;3.60;;
79076;SDS011;68477;42.698;23.342;2023-08-12T05:33:27;6.47;;;3.80;;
79076;SDS011;68477;42.698;23.342;2023-08-12T05:35:52;8.73;;;4.00;;
79076;SDS011;68477;42.698;23.342;2023-08-12T05:38:18;8.10;;;3.38;;
79076;SDS011;68477;42.698;23.342;2023-08-12T05:40:43;6.38;;;3.80;;
79076;SDS011;68477;42.698;23.342;2023-08-12T05:43:08;4.78;;;3.47;;
79076;SDS011;68477;42.698;23.342;2023-08-12T05:45:34;7.70;;;4.20;;
79076;SDS011;68477;42.698;23.342;2023-08-12T05:47:59;9.82;;;4.72;;
79076;SDS011;68477;42.698;23.342;2023-08-12T05:50:25;5.13;;;3.58;;
79076;SDS011;68477;42.698;23.342;2023-08-12T05:52:50;7.15;;;3.58;;
79076;SDS011;68477;42.698;23.342;2023-08-12T05:55:16;9.90;;;3.78;;
79076;SDS011;68477;42.698;23.342;2023-08-12T05:57:41;10.00;;;4.45;;
79076;SDS011;68477;42.698;23.342;2023-08-12T06:00:07;7.57;;;3.58;;
79076;SDS011;68477;42.698;23.342;2023-08-12T06:02:33;6.65;;;3.85;;
79076;SDS011;68477;42.698;23.342;2023-08-12T06:04:58;7.28;;;3.83;;
79076;SDS011;68477;42.698;23.342;2023-08-12T06:07:23;7.28;;;3.30;;
79076;SDS011;68477;42.698;23.342;2023-08-12T06:09:49;7.03;;;3.58;;
79076;SDS011;68477;42.698;23.342;2023-08-12T06:12:15;7.68;;;3.80;;
79076;SDS011;68477;42.698;23.342;2023-08-12T06:14:41;5.10;;;3.00;;
79076;SDS011;68477;42.698;23.342;2023-08-12T06:17:07;4.60;;;3.25;;
79076;SDS011;68477;42.698;23.342;2023-08-12T06:19:33;8.90;;;3.63;;
79076;SDS011;68477;42.698;23.342;2023-08-12T06:21:58;6.78;;;3.83;;
79076;SDS011;68477;42.698;23.342;2023-08-12T06:24:23;4.20;;;3.03;;
79076;SDS011;68477;42.698;23.342;2023-08-12T06:26:49;4.68;;;3.30;;
79076;SDS011;68477;42.698;23.342;2023-08-12T06:29:14;5.05;;;3.55;;
79076;SDS011;68477;42.698;23.342;2023-08-12T06:31:40;5.03;;;3.65;;
79076;SDS011;68477;42.698;23.342;2023-08-12T06:34:05;7.07;;;3.47;;
79076;SDS011;68477;42.698;23.342;2023-08-12T06:36:31;6.38;;;3.35;;
79076;SDS011;68477;42.698;23.342;2023-08-12T06:38:56;5.93;;;3.70;;
79076;SDS011;68477;42.698;23.342;2023-08-12T06:41:22;6.55;;;3.60;;
79076;SDS011;68477;42.698;23.342;2023-08-12T06:43:48;8.77;;;3.45;;
79076;SDS011;68477;42.698;23.342;2023-08-12T06:46:13;8.40;;;3.55;;
79076;SDS011;68477;42.698;23.342;2023-08-12T06:48:38;7.00;;;3.60;;
79076;SDS011;68477;42.698;23.342;2023-08-12T06:51:05;5.65;;;3.20;;
79076;SDS011;68477;42.698;23.342;2023-08-12T06:53:35;7.22;;;3.67;;
79076;SDS011;68477;42.698;23.342;2023-08-12T06:56:02;7.85;;;3.67;;
79076;SDS011;68477;42.698;23.342;2023-08-12T06:58:28;5.68;;;3.60;;
79076;SDS011;68477;42.698;23.342;2023-08-12T07:00:54;6.10;;;3.53;;
79076;SDS011;68477;42.698;23.342;2023-08-12T07:03:19;6.32;;;3.42;;
79076;SDS011;68477;42.698;23.342;2023-08-12T07:05:45;8.25;;;3.47;;
79076;SDS011;68477;42.698;23.342;2023-08-12T07:08:10;8.00;;;3.60;;
79076;SDS011;68477;42.698;23.342;2023-08-12T07:10:38;6.25;;;3.63;;
79076;SDS011;68477;42.698;23.342;2023-08-12T07:13:04;5.93;;;3.53;;
79076;SDS011;68477;42.698;23.342;2023-08-12T07:15:30;4.43;;;3.30;;
79076;SDS011;68477;42.698;23.342;2023-08-12T07:17:55;4.70;;;2.92;;
79076;SDS011;68477;42.698;23.342;2023-08-12T07:20:22;5.07;;;2.80;;
79076;SDS011;68477;42.698;23.342;2023-08-12T07:22:50;4.95;;;3.35;;
79076;SDS011;68477;42.698;23.342;2023-08-12T07:25:15;11.70;;;3.58;;
79076;SDS011;68477;42.698;23.342;2023-08-12T07:27:41;5.88;;;3.38;;
79076;SDS011;68477;42.698;23.342;2023-08-12T07:30:07;5.82;;;3.08;;
79076;SDS011;68477;42.698;23.342;2023-08-12T07:32:32;4.88;;;3.33;;
79076;SDS011;68477;42.698;23.342;2023-08-12T07:34:58;5.25;;;2.75;;
79076;SDS011;68477;42.698;23.342;2023-08-12T07:37:24;5.70;;;3.20;;
79076;SDS011;68477;42.698;23.342;2023-08-12T07:39:50;6.45;;;3.10;;
79076;SDS011;68477;42.698;23.342;2023-08-12T07:42:16;5.55;;;3.35;;
79076;SDS011;68477;42.698;23.342;2023-08-12T07:44:41;5.63;;;3.70;;
79076;SDS011;68477;42.698;23.342;2023-08-12T07:47:06;4.65;;;2.85;;
79076;SDS011;68477;42.698;23.342;2023-08-12T07:49:32;4.43;;;2.97;;
79076;SDS011;68477;42.698;23.342;2023-08-12T07:51:57;6.00;;;3.17;;
79076;SDS011;68477;42.698;23.342;2023-08-12T07:54:23;6.40;;;3.03;;
79076;SDS011;68477;42.698;23.342;2023-08-12T07:56:48;4.30;;;3.00;;
79076;SDS011;68477;42.698;23.342;2023-08-12T07:59:13;7.93;;;2.92;;
79076;SDS011;68477;42.698;23.342;2023-08-12T08:01:39;4.35;;;3.20;;
79076;SDS011;68477;42.698;23.342;2023-08-12T08:04:05;5.03;;;2.78;;
79076;SDS011;68477;42.698;23.342;2023-08-12T08:06:31;4.97;;;3.38;;
79076;SDS011;68477;42.698;23.342;2023-08-12T08:08:56;6.82;;;3.00;;
79076;SDS011;68477;42.698;23.342;2023-08-12T08:11:23;7.25;;;5.57;;
79076;SDS011;68477;42.698;23.342;2023-08-12T08:13:49;4.63;;;3.08;;
79076;SDS011;68477;42.698;23.342;2023-08-12T08:16:14;4.60;;;2.97;;
79076;SDS011;68477;42.698;23.342;2023-08-12T08:18:40;4.60;;;3.15;;
79076;SDS011;68477;42.698;23.342;2023-08-12T08:21:06;5.47;;;3.17;;
79076;SDS011;68477;42.698;23.342;2023-08-12T08:23:31;6.03;;;2.92;;
79076;SDS011;68477;42.698;23.342;2023-08-12T08:25:57;5.38;;;3.15;;
79076;SDS011;68477;42.698;23.342;2023-08-12T08:28:22;4.82;;;3.22;;
79076;SDS011;68477;42.698;23.342;2023-08-12T08:30:48;5.65;;;3.22;;
79076;SDS011;68477;42.698;23.342;2023-08-12T08:33:13;4.32;;;2.85;;
79076;SDS011;68477;42.698;23.342;2023-08-12T08:35:39;5.03;;;2.67;;
79076;SDS011;68477;42.698;23.342;2023-08-12T08:38:04;3.72;;;2.88;;
79076;SDS011;68477;42.698;23.342;2023-08-12T08:40:30;3.60;;;2.90;;
79076;SDS011;68477;42.698;23.342;2023-08-12T08:42:55;4.43;;;2.80;;
79076;SDS011;68477;42.698;23.342;2023-08-12T08:45:24;5.20;;;2.58;;
79076;SDS011;68477;42.698;23.342;2023-08-12T08:47:51;4.30;;;2.95;;
79076;SDS011;68477;42.698;23.342;2023-08-12T08:50:17;4.88;;;3.00;;
79076;SDS011;68477;42.698;23.342;2023-08-12T08:52:44;4.97;;;3.55;;
79076;SDS011;68477;42.698;23.342;2023-08-12T08:55:10;4.57;;;2.67;;
79076;SDS011;68477;42.698;23.342;2023-08-12T08:57:37;7.68;;;3.35;;
79076;SDS011;68477;42.698;23.342;2023-08-12T09:00:02;4.80;;;2.70;;
79076;SDS011;68477;42.698;23.342;2023-08-12T09:02:32;4.28;;;3.13;;
79076;SDS011;68477;42.698;23.342;2023-08-12T09:04:58;5.70;;;3.13;;
79076;SDS011;68477;42.698;23.342;2023-08-12T09:07:25;4.65;;;2.88;;
79076;SDS011;68477;42.698;23.342;2023-08-12T09:09:51;3.55;;;2.72;;
79076;SDS011;68477;42.698;23.342;2023-08-12T09:12:18;4.25;;;2.88;;
79076;SDS011;68477;42.698;23.342;2023-08-12T09:14:43;5.72;;;3.00;;
79076;SDS011;68477;42.698;23.342;2023-08-12T09:17:09;3.97;;;2.67;;
79076;SDS011;68477;42.698;23.342;2023-08-12T09:19:35;4.65;;;2.65;;
79076;SDS011;68477;42.698;23.342;2023-08-12T09:22:02;4.55;;;2.90;;
79076;SDS011;68477;42.698;23.342;2023-08-12T09:24:28;3.88;;;2.42;;
79076;SDS011;68477;42.698;23.342;2023-08-12T09:26:54;5.53;;;3.15;;
79076;SDS011;68477;42.698;23.342;2023-08-12T09:29:23;6.47;;;3.03;;
79076;SDS011;68477;42.698;23.342;2023-08-12T09:31:54;3.90;;;3.00;;
79076;SDS011;68477;42.698;23.342;2023-08-12T09:34:20;5.30;;;2.72;;
79076;SDS011;68477;42.698;23.342;2023-08-12T09:36:46;4.80;;;3.05;;
79076;SDS011;68477;42.698;23.342;2023-08-12T09:39:12;4.18;;;2.83;;
79076;SDS011;68477;42.698;23.342;2023-08-12T09:41:38;7.72;;;3.47;;
79076;SDS011;68477;42.698;23.342;2023-08-12T09:44:06;3.97;;;2.75;;
79076;SDS011;68477;42.698;23.342;2023-08-12T09:46:35;4.43;;;2.90;;
79076;SDS011;68477;42.698;23.342;2023-08-12T09:49:00;5.30;;;3.03;;
79076;SDS011;68477;42.698;23.342;2023-08-12T09:51:25;5.50;;;3.00;;
79076;SDS011;68477;42.698;23.342;2023-08-12T09:53:51;3.45;;;2.70;;
79076;SDS011;68477;42.698;23.342;2023-08-12T09:56:19;5.38;;;2.90;;
79076;SDS011;68477;42.698;23.342;2023-08-12T09:58:47;6.85;;;2.88;;
79076;SDS011;68477;42.698;23.342;2023-08-12T10:01:15;3.50;;;2.70;;
79076;SDS011;68477;42.698;23.342;2023-08-12T10:03:43;5.47;;;4.15;;
79076;SDS011;68477;42.698;23.342;2023-08-12T10:06:13;5.15;;;2.70;;
79076;SDS011;68477;42.698;23.342;2023-08-12T10:08:40;5.57;;;2.70;;
79076;SDS011;68477;42.698;23.342;2023-08-12T10:11:06;3.92;;;2.70;;
79076;SDS011;68477;42.698;23.342;2023-08-12T10:13:33;4.18;;;2.80;;
79076;SDS011;68477;42.698;23.342;2023-08-12T10:15:59;4.90;;;2.58;;
79076;SDS011;68477;42.698;23.342;2023-08-12T10:18:25;5.43;;;2.90;;
79076;SDS011;68477;42.698;23.342;2023-08-12T10:20:53;3.67;;;2.65;;
79076;SDS011;68477;42.698;23.342;2023-08-12T10:23:20;8.10;;;3.53;;
79076;SDS011;68477;42.698;23.342;2023-08-12T10:25:46;4.90;;;3.65;;
79076;SDS011;68477;42.698;23.342;2023-08-12T10:28:14;5.10;;;3.00;;
79076;SDS011;68477;42.698;23.342;2023-08-12T10:30:43;4.00;;;2.70;;
79076;SDS011;68477;42.698;23.342;2023-08-12T10:33:10;3.60;;;2.40;;
79076;SDS011;68477;42.698;23.342;2023-08-12T10:35:42;4.93;;;2.72;;
79076;SDS011;68477;42.698;23.342;2023-08-12T10:38:13;4.13;;;2.50;;
79076;SDS011;68477;42.698;23.342;2023-08-12T10:40:41;4.85;;;2.88;;
79076;SDS011;68477;42.698;23.342;2023-08-12T10:43:07;3.55;;;2.70;;
79076;SDS011;68477;42.698;23.342;2023-08-12T10:51:38;3.50;;;2.28;;
79076;SDS011;68477;42.698;23.342;2023-08-12T11:02:18;4.13;;;2.47;;
79076;SDS011;68477;42.698;23.342;2023-08-12T11:04:53;4.13;;;2.40;;
79076;SDS011;68477;42.698;23.342;2023-08-12T11:07:39;4.25;;;2.38;;
79076;SDS011;68477;42.698;23.342;2023-08-12T11:10:13;7.63;;;2.42;;
79076;SDS011;68477;42.698;23.342;2023-08-12T11:12:39;2.88;;;2.08;;
79076;SDS011;68477;42.698;23.342;2023-08-12T11:15:06;3.25;;;2.33;;
79076;SDS011;68477;42.698;23.342;2023-08-12T11:17:50;3.28;;;2.40;;
79076;SDS011;68477;42.698;23.342;2023-08-12T11:20:16;5.60;;;2.40;;
79076;SDS011;68477;42.698;23.342;2023-08-12T11:22:42;5.40;;;2.28;;
79076;SDS011;68477;42.698;23.342;2023-08-12T11:25:09;4.32;;;2.33;;
79076;SDS011;68477;42.698;23.342;2023-08-12T11:27:37;2.80;;;2.13;;
79076;SDS011;68477;42.698;23.342;2023-08-12T11:30:03;9.38;;;2.70;;
79076;SDS011;68477;42.698;23.342;2023-08-12T11:32:28;2.85;;;2.20;;
79076;SDS011;68477;42.698;23.342;2023-08-12T11:34:54;3.20;;;2.10;;
79076;SDS011;68477;42.698;23.342;2023-08-12T11:37:19;8.70;;;2.60;;
79076;SDS011;68477;42.698;23.342;2023-08-12T11:39:45;2.72;;;1.95;;
79076;SDS011;68477;42.698;23.342;2023-08-12T11:42:11;2.80;;;1.98;;
79076;SDS011;68477;42.698;23.342;2023-08-12T11:44:36;3.72;;;2.13;;
79076;SDS011;68477;42.698;23.342;2023-08-12T11:47:02;3.17;;;2.10;;
79076;SDS011;68477;42.698;23.342;2023-08-12T11:49:27;3.88;;;2.28;;
79076;SDS011;68477;42.698;23.342;2023-08-12T11:51:53;5.07;;;2.03;;
79076;SDS011;68477;42.698;23.342;2023-08-12T11:54:18;4.05;;;2.30;;
79076;SDS011;68477;42.698;23.342;2023-08-12T11:56:45;3.83;;;1.95;;
79076;SDS011;68477;42.698;23.342;2023-08-12T11:59:10;3.85;;;2.40;;
79076;SDS011;68477;42.698;23.342;2023-08-12T12:01:36;3.75;;;2.40;;
79076;SDS011;68477;42.698;23.342;2023-08-12T12:04:01;4.72;;;2.38;;
79076;SDS011;68477;42.698;23.342;2023-08-12T12:06:32;3.40;;;2.53;;
79076;SDS011;68477;42.698;23.342;2023-08-12T12:09:01;9.52;;;2.70;;
79076;SDS011;68477;42.698;23.342;2023-08-12T12:11:31;3.53;;;2.60;;
79076;SDS011;68477;42.698;23.342;2023-08-12T12:14:04;3.20;;;2.40;;
79076;SDS011;68477;42.698;23.342;2023-08-12T12:16:39;4.88;;;2.50;;
79076;SDS011;68477;42.698;23.342;2023-08-12T12:19:13;4.47;;;2.20;;
79076;SDS011;68477;42.698;23.342;2023-08-12T12:24:07;4.80;;;2.70;;
79076;SDS011;68477;42.698;23.342;2023-08-12T12:26:36;3.58;;;2.60;;
79076;SDS011;68477;42.698;23.342;2023-08-12T12:29:03;3.97;;;2.40;;
79076;SDS011;68477;42.698;23.342;2023-08-12T12:31:29;4.47;;;2.10;;
79076;SDS011;68477;42.698;23.342;2023-08-12T12:33:56;3.28;;;2.25;;
79076;SDS011;68477;42.698;23.342;2023-08-12T12:36:21;4.97;;;2.20;;
79076;SDS011;68477;42.698;23.342;2023-08-12T12:38:47;5.18;;;2.42;;
79076;SDS011;68477;42.698;23.342;2023-08-12T12:41:12;5.05;;;3.38;;
79076;SDS011;68477;42.698;23.342;2023-08-12T12:43:38;4.15;;;2.85;;
79076;SDS011;68477;42.698;23.342;2023-08-12T12:46:03;3.50;;;2.50;;
79076;SDS011;68477;42.698;23.342;2023-08-12T12:48:29;3.72;;;2.60;;
79076;SDS011;68477;42.698;23.342;2023-08-12T12:50:54;3.75;;;2.40;;
79076;SDS011;68477;42.698;23.342;2023-08-12T12:53:20;3.65;;;2.55;;
79076;SDS011;68477;42.698;23.342;2023-08-12T12:55:45;4.95;;;2.45;;
79076;SDS011;68477;42.698;23.342;2023-08-12T12:58:10;4.65;;;2.72;;
79076;SDS011;68477;42.698;23.342;2023-08-12T13:00:36;5.03;;;2.63;;
79076;SDS011;68477;42.698;23.342;2023-08-12T13:03:01;3.30;;;2.30;;
79076;SDS011;68477;42.698;23.342;2023-08-12T13:05:27;3.92;;;2.53;;
79076;SDS011;68477;42.698;23.342;2023-08-12T13:07:52;6.88;;;2.55;;
79076;SDS011;68477;42.698;23.342;2023-08-12T13:10:18;3.40;;;2.28;;
79076;SDS011;68477;42.698;23.342;2023-08-12T13:12:43;3.70;;;2.03;;
79076;SDS011;68477;42.698;23.342;2023-08-12T13:15:09;4.28;;;2.47;;
79076;SDS011;68477;42.698;23.342;2023-08-12T13:17:34;3.55;;;2.58;;
79076;SDS011;68477;42.698;23.342;2023-08-12T13:20:00;5.85;;;2.45;;
79076;SDS011;68477;42.698;23.342;2023-08-12T13:22:25;4.18;;;2.20;;
79076;SDS011;68477;42.698;23.342;2023-08-12T13:24:51;2.65;;;2.00;;
79076;SDS011;68477;42.698;23.342;2023-08-12T13:27:18;3.10;;;2.30;;
79076;SDS011;68477;42.698;23.342;2023-08-12T13:29:43;3.20;;;2.15;;
79076;SDS011;68477;42.698;23.342;2023-08-12T13:32:09;3.20;;;2.30;;
79076;SDS011;68477;42.698;23.342;2023-08-12T13:34:34;3.63;;;2.20;;
79076;SDS011;68477;42.698;23.342;2023-08-12T13:37:00;4.63;;;2.33;;
79076;SDS011;68477;42.698;23.342;2023-08-12T13:39:25;4.70;;;2.20;;
79076;SDS011;68477;42.698;23.342;2023-08-12T13:41:51;3.50;;;2.20;;
79076;SDS011;68477;42.698;23.342;2023-08-12T13:44:16;3.35;;;2.20;;
79076;SDS011;68477;42.698;23.342;2023-08-12T13:46:42;3.00;;;2.10;;
79076;SDS011;68477;42.698;23.342;2023-08-12T13:49:07;3.25;;;2.08;;
79076;SDS011;68477;42.698;23.342;2023-08-12T13:51:33;2.55;;;1.88;;
79076;SDS011;68477;42.698;23.342;2023-08-12T13:53:58;3.38;;;2.15;;
79076;SDS011;68477;42.698;23.342;2023-08-12T13:56:24;3.22;;;2.00;;
79076;SDS011;68477;42.698;23.342;2023-08-12T13:58:49;3.38;;;2.00;;
79076;SDS011;68477;42.698;23.342;2023-08-12T14:01:15;3.13;;;2.30;;
79076;SDS011;68477;42.698;23.342;2023-08-12T14:03:40;3.30;;;2.17;;
79076;SDS011;68477;42.698;23.342;2023-08-12T14:06:06;3.50;;;2.25;;
79076;SDS011;68477;42.698;23.342;2023-08-12T14:08:31;4.40;;;2.53;;
79076;SDS011;68477;42.698;23.342;2023-08-12T14:10:56;4.85;;;2.70;;
79076;SDS011;68477;42.698;23.342;2023-08-12T14:13:22;3.83;;;2.22;;
79076;SDS011;68477;42.698;23.342;2023-08-12T14:15:47;3.70;;;2.10;;
79076;SDS011;68477;42.698;23.342;2023-08-12T14:18:13;6.25;;;2.60;;
79076;SDS011;68477;42.698;23.342;2023-08-12T14:20:38;4.68;;;2.50;;
79076;SDS011;68477;42.698;23.342;2023-08-12T14:23:04;3.60;;;2.45;;
79076;SDS011;68477;42.698;23.342;2023-08-12T14:25:29;3.30;;;2.50;;
79076;SDS011;68477;42.698;23.342;2023-08-12T14:27:55;4.63;;;2.75;;
79076;SDS011;68477;42.698;23.342;2023-08-12T14:30:23;5.53;;;2.85;;
79076;SDS011;68477;42.698;23.342;2023-08-12T14:32:49;4.63;;;2.50;;
79076;SDS011;68477;42.698;23.342;2023-08-12T14:35:14;9.23;;;2.25;;
79076;SDS011;68477;42.698;23.342;2023-08-12T14:37:40;3.00;;;2.20;;
79076;SDS011;68477;42.698;23.342;2023-08-12T14:40:06;3.20;;;2.10;;
79076;SDS011;68477;42.698;23.342;2023-08-12T14:42:32;3.20;;;2.40;;
79076;SDS011;68477;42.698;23.342;2023-08-12T14:44:58;3.50;;;2.20;;
79076;SDS011;68477;42.698;23.342;2023-08-12T14:47:23;4.45;;;2.90;;
79076;SDS011;68477;42.698;23.342;2023-08-12T14:49:49;3.95;;;2.25;;